createdAt,value
2019-01-19T06:23:35.636Z,10.73
2019-01-19T06:29:45.167Z,11.07
2019-01-19T06:32:13.606Z,11.20
2019-01-19T06:38:11.499Z,11.23
2019-01-19T06:44:09.124Z,12.17
2019-01-19T06:46:37.602Z,11.40
2019-01-19T06:49:06.120Z,10.70
2019-01-19T06:51:34.913Z,11.00
2019-01-19T06:57:32.346Z,11.13
2019-01-19T07:00:01.025Z,11.37
2019-01-19T07:02:29.461Z,11.97
2019-01-19T07:04:57.911Z,12.37
2019-01-19T07:10:30.771Z,10.73
2019-01-19T07:12:59.247Z,10.93
2019-01-19T07:15:27.686Z,10.97
2019-01-19T07:21:24.646Z,10.53
2019-01-19T07:23:53.111Z,11.30
2019-01-19T07:26:21.552Z,12.03
2019-01-19T07:28:49.999Z,13.60
2019-01-19T07:34:46.683Z,11.63
2019-01-19T07:37:15.130Z,12.60
2019-01-19T07:39:43.688Z,12.50
2019-01-19T07:42:12.486Z,12.10
2019-01-19T07:44:41.259Z,13.07
2019-01-19T07:47:10.106Z,12.47
2019-01-19T07:49:38.618Z,12.67
2019-01-19T07:52:07.334Z,11.93
2019-01-19T07:54:35.802Z,11.90
2019-01-19T07:57:04.419Z,12.13
2019-01-19T08:03:02.303Z,12.93
2019-01-19T08:05:31.162Z,11.77
2019-01-19T08:07:59.594Z,11.87
2019-01-19T08:10:28.331Z,11.40
2019-01-19T08:12:56.791Z,11.73
2019-01-19T08:15:27.276Z,12.27
2019-01-19T08:21:24.558Z,11.87
2019-01-19T08:23:53.032Z,11.80
2019-01-19T08:26:21.539Z,11.57
2019-01-19T08:28:49.981Z,11.20
2019-01-19T08:31:18.553Z,11.80
2019-01-19T08:33:46.990Z,12.20
2019-01-19T08:36:16.045Z,11.30
2019-01-19T08:38:44.590Z,11.67
2019-01-19T08:41:13.035Z,11.37
2019-01-19T08:43:43.114Z,11.10
2019-01-19T08:46:11.575Z,11.40
2019-01-19T08:48:40.154Z,11.57
2019-01-19T08:51:08.594Z,11.03
2019-01-19T08:57:05.310Z,11.10
2019-01-19T08:59:34.086Z,11.47
2019-01-19T09:02:02.598Z,10.87
2019-01-19T09:04:31.044Z,11.27
2019-01-19T09:06:59.905Z,10.50
2019-01-19T09:09:28.366Z,11.27
2019-01-19T09:11:56.806Z,11.03
2019-01-19T09:14:25.270Z,11.80
2019-01-19T09:16:53.720Z,11.87
2019-01-19T09:19:22.166Z,11.30
2019-01-19T09:21:50.649Z,12.10
2019-01-19T09:28:00.650Z,11.17
2019-01-19T09:30:29.163Z,12.00
2019-01-19T09:32:58.070Z,11.53
2019-01-19T09:35:26.558Z,12.07
2019-01-19T09:37:54.990Z,11.50
2019-01-19T09:40:23.426Z,12.00
2019-01-19T09:42:51.984Z,11.63
2019-01-19T09:45:21.054Z,12.03
2019-01-19T09:47:49.490Z,13.07
2019-01-19T09:50:22.289Z,12.37
2019-01-19T09:52:50.867Z,12.40
2019-01-19T09:55:19.316Z,12.37
2019-01-19T09:57:47.907Z,12.50
2019-01-19T10:00:24.547Z,12.70
2019-01-19T10:02:53.163Z,13.23
2019-01-19T10:05:23.442Z,12.20
2019-01-19T10:07:52.130Z,13.43
2019-01-19T10:10:20.829Z,13.13
2019-01-19T10:12:49.294Z,13.70
2019-01-19T10:15:18.971Z,13.07
2019-01-19T10:17:47.434Z,13.20
2019-01-19T10:20:24.539Z,13.07
2019-01-19T10:22:53.071Z,13.40
2019-01-19T10:25:21.773Z,13.87
2019-01-19T10:27:50.210Z,14.10
2019-01-19T10:30:30.076Z,14.50
2019-01-19T10:32:58.663Z,14.13
2019-01-19T10:35:27.159Z,13.33
2019-01-19T10:37:56.613Z,14.43
2019-01-19T10:40:25.314Z,14.47
2019-01-19T10:42:53.817Z,14.73
2019-01-19T10:45:25.078Z,14.80
2019-01-19T10:47:53.989Z,14.87
2019-01-19T10:50:22.499Z,15.27
2019-01-19T10:52:51.322Z,16.40
2019-01-19T10:55:21.595Z,16.43
2019-01-19T10:57:50.097Z,14.53
2019-01-19T11:00:35.157Z,15.37
2019-01-19T11:03:04.105Z,16.13
2019-01-19T11:09:01.901Z,17.23
2019-01-19T11:14:34.711Z,18.13
2019-01-19T11:20:32.266Z,18.17
2019-01-19T11:23:01.599Z,19.20
2019-01-19T11:25:30.571Z,20.47
2019-01-19T11:27:59.178Z,21.03
2019-01-19T11:30:30.029Z,20.50
2019-01-19T11:32:58.468Z,20.70
2019-01-19T11:38:55.615Z,20.43
2019-01-19T11:41:24.080Z,21.13
2019-01-19T11:47:33.852Z,17.83
2019-01-19T11:50:02.458Z,15.80
2019-01-19T11:55:59.966Z,18.40
2019-01-19T11:58:28.842Z,19.33
2019-01-19T12:04:25.959Z,21.27
2019-01-19T12:06:54.416Z,20.17
2019-01-19T12:09:22.859Z,20.97
2019-01-19T12:15:20.625Z,20.50
2019-01-19T12:17:49.334Z,20.30
2019-01-19T12:20:32.872Z,20.53
2019-01-19T12:23:01.403Z,20.67
2019-01-19T12:29:11.496Z,20.27
2019-01-19T12:35:21.225Z,19.90
2019-01-19T12:37:49.722Z,20.73
2019-01-19T12:43:47.290Z,20.33
2019-01-19T12:46:16.085Z,21.80
2019-01-19T12:52:13.807Z,20.53
2019-01-19T12:58:11.800Z,20.93
2019-01-19T13:00:40.559Z,20.20
2019-01-19T13:06:50.359Z,19.83
2019-01-19T13:09:19.126Z,20.53
2019-01-19T13:15:22.610Z,20.37
2019-01-19T13:17:57.034Z,19.97
2019-01-19T13:20:37.543Z,18.83
2019-01-19T13:23:21.455Z,19.07
2019-01-19T13:29:42.595Z,18.90
2019-01-19T13:36:12.571Z,20.30
2019-01-19T13:38:47.293Z,21.03
2019-01-19T13:44:51.039Z,19.70
2019-01-19T13:51:00.569Z,19.07
2019-01-19T13:53:32.103Z,22.45
2019-01-19T13:56:18.923Z,20.67
2019-01-19T13:58:53.229Z,19.50
2019-01-19T14:01:39.906Z,20.83
2019-01-19T14:04:20.649Z,19.73
2019-01-19T14:06:57.910Z,20.23
2019-01-19T14:09:35.105Z,20.27
2019-01-19T14:12:15.440Z,20.23
2019-01-19T14:15:08.485Z,20.20
2019-01-19T14:17:48.839Z,20.00
2019-01-19T14:24:10.848Z,20.37
2019-01-19T14:30:20.577Z,19.63
2019-01-19T14:33:08.771Z,20.40
2019-01-19T14:35:43.236Z,20.70
2019-01-19T14:41:38.249Z,18.80
2019-01-19T14:47:40.974Z,19.10
2019-01-19T14:50:28.129Z,19.20
2019-01-19T14:56:40.885Z,18.27
2019-01-19T15:03:25.695Z,18.40
2019-01-19T15:09:38.838Z,19.07
2019-01-19T15:16:06.054Z,18.63
2019-01-19T15:18:40.308Z,18.50
2019-01-19T16:29:52.878Z,21.03
2019-01-19T16:36:20.581Z,21.40
2019-01-19T16:39:05.752Z,20.93
2019-01-19T16:41:40.444Z,20.63
2019-01-19T16:44:12.025Z,20.60
2019-01-19T16:50:21.503Z,20.97
2019-01-19T16:52:55.702Z,21.20
2019-01-19T16:59:23.581Z,20.90
2019-01-19T17:05:45.235Z,27.57
2019-01-19T17:12:22.735Z,52.73
2019-01-19T17:15:13.567Z,51.23
2019-01-19T17:21:19.986Z,35.30
2019-01-19T17:24:03.206Z,32.63
2019-01-19T17:26:40.686Z,28.50
2019-01-19T17:29:36.231Z,26.83
2019-01-19T17:35:57.826Z,26.60
2019-01-19T17:38:40.641Z,27.27
2019-01-19T17:41:12.201Z,27.00
2019-01-19T17:43:58.635Z,27.07
2019-01-19T17:46:48.055Z,26.03
2019-01-19T17:53:15.162Z,26.60
2019-01-19T17:55:58.368Z,28.07
2019-01-19T17:58:42.003Z,29.43
2019-01-19T18:01:16.440Z,27.57
2019-01-19T18:07:16.468Z,26.70
2019-01-19T18:09:50.611Z,26.37
2019-01-19T18:16:08.784Z,25.10
2019-01-19T18:22:24.656Z,25.47
2019-01-19T18:28:47.154Z,25.07
2019-01-19T18:31:27.623Z,24.20
2019-01-19T18:34:20.476Z,26.30
2019-01-19T18:36:54.740Z,26.63
2019-01-19T18:42:46.109Z,24.80
2019-01-19T18:45:17.890Z,25.27
2019-01-19T18:48:01.409Z,24.90
2019-01-19T18:54:13.958Z,25.27
2019-01-19T19:00:29.712Z,26.10
2019-01-19T19:06:39.506Z,28.27
2019-01-19T19:09:14.335Z,27.73
2019-01-19T19:11:54.511Z,26.27
2019-01-19T19:18:29.758Z,27.30
2019-01-19T19:21:29.926Z,26.17
2019-01-19T19:27:59.547Z,23.80
2019-01-19T19:30:52.304Z,24.73
2019-01-19T19:33:29.824Z,25.50
2019-01-19T19:39:51.604Z,24.27
2019-01-19T19:42:31.962Z,24.77
2019-01-19T19:48:32.200Z,25.57
2019-01-19T19:54:29.947Z,25.47
2019-01-19T20:00:16.791Z,26.90
2019-01-19T20:02:45.278Z,28.13
2019-01-19T20:08:31.244Z,28.33
2019-01-19T20:10:59.681Z,28.00
2019-01-19T20:16:57.319Z,26.53
2019-01-19T20:19:25.803Z,24.40
2019-01-19T20:21:54.375Z,25.67
2019-01-19T20:24:22.867Z,27.90
2019-01-19T20:26:51.523Z,28.20
2019-01-19T20:29:19.967Z,26.93
